Метеостанция


АнтоновUKKM 242300Z AUTO 04003MPS 7000 // BKN069/// M12/M15 Q1021
БориспольUKBB 242300Z 04004MPS CAVOK M13/M15 Q1021 R36R/821040 R36L///99// NOSIG
Гаврышовка (Винница)UKWW 241800Z 34004MPS 9000 FEW023CB BKN100 M10/M11 Q1015 R31/450050 NOSIG
ДнепропетровскUKDD 242300Z 03006MPS 9999 -SHSN SCT015CB BKN033 M12/M14 Q1016 R08/090070 TEMPO 2100 -SHSN BKN005 BKN012CB
ДонецкNo METAR available for UKCC.
ЖуляныUKKK 242300Z 06005MPS CAVOK M12/M15 Q1021 R08/490340 NOSIG
Запорожье(Мокрая)UKDE 242300Z 01004MPS 9999 BKN020 M10/M12 Q1015 R02/450358 NOSIG
Ивано-ФранковскUKLI 242000Z 32003MPS 250V350 1400 SHSN BKN012 BKN023CB M09/M11 Q1020 R28/420255 NOSIG
Кривой РогUKDR 242300Z 04007MPS CAVOK M10/M14 Q1016 R18/490535 TEMPO 2000 -SN BR OVC007
ЛуганскNo METAR available for UKCW.
ЛьвовUKLL 242300Z 02004MPS 2900 -SN BR OVC015 M12/M14 Q1022 R31/490534 TEMPO 2100
МариупольNo METAR available for UKCM.
НиколаевUKON 241600Z 07003MPS 4600 -SN BKN007 BKN016 M05/M06 Q1014 NOSIG
ОдессаUKOO 242300Z 36005MPS 9999 -SN OVC005 M05/M06 Q1015 R34/590330 NOSIG
РовноUKLR 241500Z 36005MPS 5000 -SN BKN006 M10/M12 Q1018 NOSIG
СимферопольNo METAR available for UKFF.
УжгородUKLU 242000Z 33004MPS 300V040 9999 SCT040 M06/M14 Q1020 NOSIG
ХарьковUKHH 242300Z 03004MPS CAVOK M15/M17 Q1019 R07/0///66 NOSIG
ЧеркассыNo METAR available for UKKE.
ЧерновцыUKLN 242030Z 30005MPS 260V330 9999 -SHSN BKN013 BKN026CB M09/M13 Q1019 R33/09//70 NOSIG
Скачать:
Скачать этот файл (Metar_шпаргалка.jpg)Расшифровка METAR[ ]4799 Кб
Вся информация, которая имеется в использовании на сайте и доступная для скачивания, получена исключительно из открытых источников информации сети Интернет, всякое совпадение с данными, имеющими ограничения в доступе, случайное и не является преднамеренным.